sensor_id;sensor_type;location;lat;lon;timestamp;P1;durP1;ratioP1;P2;durP2;ratioP2
84796;SDS011;75028;51.374;21.078;2024-01-27T00:02:01;24.58;;;11.15;;
84796;SDS011;75028;51.374;21.078;2024-01-27T00:04:27;22.63;;;10.73;;
84796;SDS011;75028;51.374;21.078;2024-01-27T00:06:53;17.80;;;10.13;;
84796;SDS011;75028;51.374;21.078;2024-01-27T00:09:19;18.55;;;9.27;;
84796;SDS011;75028;51.374;21.078;2024-01-27T00:11:45;15.60;;;7.82;;
84796;SDS011;75028;51.374;21.078;2024-01-27T00:14:11;12.15;;;6.18;;
84796;SDS011;75028;51.374;21.078;2024-01-27T00:16:38;12.90;;;7.13;;
84796;SDS011;75028;51.374;21.078;2024-01-27T00:19:03;12.70;;;6.97;;
84796;SDS011;75028;51.374;21.078;2024-01-27T00:21:30;10.63;;;6.07;;
84796;SDS011;75028;51.374;21.078;2024-01-27T00:23:56;10.77;;;5.90;;
84796;SDS011;75028;51.374;21.078;2024-01-27T00:26:26;10.98;;;5.15;;
84796;SDS011;75028;51.374;21.078;2024-01-27T00:28:53;11.05;;;5.05;;
84796;SDS011;75028;51.374;21.078;2024-01-27T00:31:19;7.75;;;3.95;;
84796;SDS011;75028;51.374;21.078;2024-01-27T00:33:45;6.22;;;3.33;;
84796;SDS011;75028;51.374;21.078;2024-01-27T00:36:11;5.75;;;2.92;;
84796;SDS011;75028;51.374;21.078;2024-01-27T00:38:37;6.57;;;2.92;;
84796;SDS011;75028;51.374;21.078;2024-01-27T00:41:04;6.53;;;2.83;;
84796;SDS011;75028;51.374;21.078;2024-01-27T00:43:30;7.07;;;3.60;;
84796;SDS011;75028;51.374;21.078;2024-01-27T00:45:57;7.28;;;3.00;;
84796;SDS011;75028;51.374;21.078;2024-01-27T00:48:25;9.50;;;3.63;;
84796;SDS011;75028;51.374;21.078;2024-01-27T00:50:52;6.40;;;3.05;;
84796;SDS011;75028;51.374;21.078;2024-01-27T00:53:19;8.07;;;2.38;;
84796;SDS011;75028;51.374;21.078;2024-01-27T00:55:45;6.13;;;2.30;;
84796;SDS011;75028;51.374;21.078;2024-01-27T00:58:11;7.43;;;3.15;;
84796;SDS011;75028;51.374;21.078;2024-01-27T01:00:37;12.38;;;3.33;;
84796;SDS011;75028;51.374;21.078;2024-01-27T01:03:04;6.72;;;2.35;;
84796;SDS011;75028;51.374;21.078;2024-01-27T01:05:30;7.15;;;3.13;;
84796;SDS011;75028;51.374;21.078;2024-01-27T01:07:56;9.23;;;2.90;;
84796;SDS011;75028;51.374;21.078;2024-01-27T01:10:22;10.60;;;3.25;;
84796;SDS011;75028;51.374;21.078;2024-01-27T01:12:48;12.00;;;3.17;;
84796;SDS011;75028;51.374;21.078;2024-01-27T01:15:14;10.77;;;2.67;;
84796;SDS011;75028;51.374;21.078;2024-01-27T01:17:41;11.13;;;3.13;;
84796;SDS011;75028;51.374;21.078;2024-01-27T01:20:07;11.30;;;3.13;;
84796;SDS011;75028;51.374;21.078;2024-01-27T01:22:34;6.10;;;2.47;;
84796;SDS011;75028;51.374;21.078;2024-01-27T01:24:59;11.85;;;4.55;;
84796;SDS011;75028;51.374;21.078;2024-01-27T01:27:26;7.35;;;2.60;;
84796;SDS011;75028;51.374;21.078;2024-01-27T01:29:52;6.47;;;1.98;;
84796;SDS011;75028;51.374;21.078;2024-01-27T01:32:18;7.60;;;2.60;;
84796;SDS011;75028;51.374;21.078;2024-01-27T01:34:45;9.38;;;2.55;;
84796;SDS011;75028;51.374;21.078;2024-01-27T01:37:12;9.85;;;2.50;;
84796;SDS011;75028;51.374;21.078;2024-01-27T01:39:39;7.50;;;2.20;;
84796;SDS011;75028;51.374;21.078;2024-01-27T01:42:05;7.82;;;2.58;;
84796;SDS011;75028;51.374;21.078;2024-01-27T01:44:31;9.27;;;2.35;;
84796;SDS011;75028;51.374;21.078;2024-01-27T01:46:58;8.18;;;2.15;;
84796;SDS011;75028;51.374;21.078;2024-01-27T01:51:50;13.68;;;2.60;;
84796;SDS011;75028;51.374;21.078;2024-01-27T01:54:16;9.18;;;2.72;;
84796;SDS011;75028;51.374;21.078;2024-01-27T01:56:42;11.32;;;2.88;;
84796;SDS011;75028;51.374;21.078;2024-01-27T01:59:08;6.30;;;2.72;;
84796;SDS011;75028;51.374;21.078;2024-01-27T02:01:34;11.30;;;2.40;;
84796;SDS011;75028;51.374;21.078;2024-01-27T02:04:00;8.68;;;2.53;;
84796;SDS011;75028;51.374;21.078;2024-01-27T02:06:26;10.50;;;2.78;;
84796;SDS011;75028;51.374;21.078;2024-01-27T02:08:52;22.85;;;6.53;;
84796;SDS011;75028;51.374;21.078;2024-01-27T02:11:19;21.35;;;5.45;;
84796;SDS011;75028;51.374;21.078;2024-01-27T02:13:45;26.75;;;9.27;;
84796;SDS011;75028;51.374;21.078;2024-01-27T02:16:12;9.82;;;2.72;;
84796;SDS011;75028;51.374;21.078;2024-01-27T02:18:38;18.70;;;5.32;;
84796;SDS011;75028;51.374;21.078;2024-01-27T02:21:05;9.68;;;3.35;;
84796;SDS011;75028;51.374;21.078;2024-01-27T02:23:31;5.60;;;1.83;;
84796;SDS011;75028;51.374;21.078;2024-01-27T02:25:57;10.63;;;2.70;;
84796;SDS011;75028;51.374;21.078;2024-01-27T02:28:24;13.38;;;3.38;;
84796;SDS011;75028;51.374;21.078;2024-01-27T02:30:50;11.82;;;3.13;;
84796;SDS011;75028;51.374;21.078;2024-01-27T02:33:16;13.63;;;2.95;;
84796;SDS011;75028;51.374;21.078;2024-01-27T02:35:42;8.80;;;2.80;;
84796;SDS011;75028;51.374;21.078;2024-01-27T02:38:09;12.48;;;3.10;;
84796;SDS011;75028;51.374;21.078;2024-01-27T02:40:35;9.85;;;3.10;;
84796;SDS011;75028;51.374;21.078;2024-01-27T02:43:01;16.10;;;5.20;;
84796;SDS011;75028;51.374;21.078;2024-01-27T02:45:27;17.50;;;4.72;;
84796;SDS011;75028;51.374;21.078;2024-01-27T02:47:53;22.00;;;5.00;;
84796;SDS011;75028;51.374;21.078;2024-01-27T02:50:19;12.73;;;2.50;;
84796;SDS011;75028;51.374;21.078;2024-01-27T02:52:45;12.45;;;3.47;;
84796;SDS011;75028;51.374;21.078;2024-01-27T02:55:11;18.83;;;3.00;;
84796;SDS011;75028;51.374;21.078;2024-01-27T02:57:37;19.55;;;4.38;;
84796;SDS011;75028;51.374;21.078;2024-01-27T03:00:04;7.95;;;2.53;;
84796;SDS011;75028;51.374;21.078;2024-01-27T03:02:30;13.13;;;3.30;;
84796;SDS011;75028;51.374;21.078;2024-01-27T03:04:57;12.30;;;3.55;;
84796;SDS011;75028;51.374;21.078;2024-01-27T03:07:22;9.65;;;2.85;;
84796;SDS011;75028;51.374;21.078;2024-01-27T03:09:49;9.48;;;3.10;;
84796;SDS011;75028;51.374;21.078;2024-01-27T03:12:15;8.63;;;2.40;;
84796;SDS011;75028;51.374;21.078;2024-01-27T03:14:41;9.30;;;2.47;;
84796;SDS011;75028;51.374;21.078;2024-01-27T03:17:07;7.00;;;2.67;;
84796;SDS011;75028;51.374;21.078;2024-01-27T03:19:33;9.80;;;2.45;;
84796;SDS011;75028;51.374;21.078;2024-01-27T03:21:59;10.10;;;3.10;;
84796;SDS011;75028;51.374;21.078;2024-01-27T03:24:26;13.23;;;2.38;;
84796;SDS011;75028;51.374;21.078;2024-01-27T03:26:51;14.23;;;2.80;;
84796;SDS011;75028;51.374;21.078;2024-01-27T03:29:18;12.20;;;5.10;;
84796;SDS011;75028;51.374;21.078;2024-01-27T03:31:43;9.73;;;2.20;;
84796;SDS011;75028;51.374;21.078;2024-01-27T03:34:10;5.03;;;1.92;;
84796;SDS011;75028;51.374;21.078;2024-01-27T03:36:36;10.30;;;2.30;;
84796;SDS011;75028;51.374;21.078;2024-01-27T03:39:02;10.40;;;2.08;;
84796;SDS011;75028;51.374;21.078;2024-01-27T03:41:28;9.25;;;2.33;;
84796;SDS011;75028;51.374;21.078;2024-01-27T03:43:55;9.20;;;2.13;;
84796;SDS011;75028;51.374;21.078;2024-01-27T03:46:21;11.07;;;2.45;;
84796;SDS011;75028;51.374;21.078;2024-01-27T03:48:47;12.27;;;2.67;;
84796;SDS011;75028;51.374;21.078;2024-01-27T03:51:13;8.35;;;2.72;;
84796;SDS011;75028;51.374;21.078;2024-01-27T03:56:05;5.72;;;1.67;;
84796;SDS011;75028;51.374;21.078;2024-01-27T04:00:57;7.25;;;2.08;;
84796;SDS011;75028;51.374;21.078;2024-01-27T04:03:25;4.32;;;2.28;;
84796;SDS011;75028;51.374;21.078;2024-01-27T04:05:50;11.30;;;3.10;;
84796;SDS011;75028;51.374;21.078;2024-01-27T04:08:17;11.23;;;2.70;;
84796;SDS011;75028;51.374;21.078;2024-01-27T04:10:43;7.95;;;2.13;;
84796;SDS011;75028;51.374;21.078;2024-01-27T04:13:09;10.80;;;2.70;;
84796;SDS011;75028;51.374;21.078;2024-01-27T04:15:35;9.65;;;2.53;;
84796;SDS011;75028;51.374;21.078;2024-01-27T04:18:04;7.30;;;2.30;;
84796;SDS011;75028;51.374;21.078;2024-01-27T04:20:33;6.22;;;2.20;;
84796;SDS011;75028;51.374;21.078;2024-01-27T04:23:01;13.60;;;2.80;;
84796;SDS011;75028;51.374;21.078;2024-01-27T04:25:28;16.60;;;2.70;;
84796;SDS011;75028;51.374;21.078;2024-01-27T04:27:54;7.85;;;2.38;;
84796;SDS011;75028;51.374;21.078;2024-01-27T04:30:20;10.70;;;2.42;;
84796;SDS011;75028;51.374;21.078;2024-01-27T04:32:46;11.18;;;2.67;;
84796;SDS011;75028;51.374;21.078;2024-01-27T04:35:14;9.27;;;2.80;;
84796;SDS011;75028;51.374;21.078;2024-01-27T04:37:40;5.93;;;2.13;;
84796;SDS011;75028;51.374;21.078;2024-01-27T04:40:07;9.95;;;2.83;;
84796;SDS011;75028;51.374;21.078;2024-01-27T04:42:39;7.88;;;2.47;;
84796;SDS011;75028;51.374;21.078;2024-01-27T04:45:05;6.32;;;2.42;;
84796;SDS011;75028;51.374;21.078;2024-01-27T04:47:33;9.02;;;2.70;;
84796;SDS011;75028;51.374;21.078;2024-01-27T04:49:59;8.57;;;1.95;;
84796;SDS011;75028;51.374;21.078;2024-01-27T04:54:51;10.25;;;2.50;;
84796;SDS011;75028;51.374;21.078;2024-01-27T04:57:17;10.80;;;2.80;;
84796;SDS011;75028;51.374;21.078;2024-01-27T04:59:43;7.55;;;2.42;;
84796;SDS011;75028;51.374;21.078;2024-01-27T05:02:10;11.93;;;2.95;;
84796;SDS011;75028;51.374;21.078;2024-01-27T05:04:37;10.57;;;2.38;;
84796;SDS011;75028;51.374;21.078;2024-01-27T05:07:04;8.38;;;2.97;;
84796;SDS011;75028;51.374;21.078;2024-01-27T05:09:30;8.73;;;2.22;;
84796;SDS011;75028;51.374;21.078;2024-01-27T05:11:56;8.95;;;2.50;;
84796;SDS011;75028;51.374;21.078;2024-01-27T05:14:22;8.88;;;2.70;;
84796;SDS011;75028;51.374;21.078;2024-01-27T05:16:48;9.20;;;2.92;;
84796;SDS011;75028;51.374;21.078;2024-01-27T05:19:14;15.13;;;3.38;;
84796;SDS011;75028;51.374;21.078;2024-01-27T05:21:42;13.18;;;2.40;;
84796;SDS011;75028;51.374;21.078;2024-01-27T05:24:08;10.30;;;2.92;;
84796;SDS011;75028;51.374;21.078;2024-01-27T05:26:34;6.43;;;2.03;;
84796;SDS011;75028;51.374;21.078;2024-01-27T05:29:00;11.45;;;2.20;;
84796;SDS011;75028;51.374;21.078;2024-01-27T05:31:26;10.43;;;2.83;;
84796;SDS011;75028;51.374;21.078;2024-01-27T05:33:52;13.18;;;3.00;;
84796;SDS011;75028;51.374;21.078;2024-01-27T05:36:18;13.10;;;2.45;;
84796;SDS011;75028;51.374;21.078;2024-01-27T05:38:44;7.18;;;2.60;;
84796;SDS011;75028;51.374;21.078;2024-01-27T05:41:11;13.80;;;3.00;;
84796;SDS011;75028;51.374;21.078;2024-01-27T05:43:36;13.77;;;2.70;;
84796;SDS011;75028;51.374;21.078;2024-01-27T05:46:03;9.32;;;2.35;;
84796;SDS011;75028;51.374;21.078;2024-01-27T05:48:29;9.10;;;2.30;;
84796;SDS011;75028;51.374;21.078;2024-01-27T05:50:59;10.85;;;2.72;;
84796;SDS011;75028;51.374;21.078;2024-01-27T05:53:26;15.93;;;2.50;;
84796;SDS011;75028;51.374;21.078;2024-01-27T05:55:53;7.35;;;2.55;;
84796;SDS011;75028;51.374;21.078;2024-01-27T05:58:25;18.17;;;2.80;;
84796;SDS011;75028;51.374;21.078;2024-01-27T06:03:17;10.07;;;3.15;;
84796;SDS011;75028;51.374;21.078;2024-01-27T06:08:09;13.02;;;2.40;;
84796;SDS011;75028;51.374;21.078;2024-01-27T06:10:36;12.77;;;2.70;;
84796;SDS011;75028;51.374;21.078;2024-01-27T06:13:02;13.27;;;3.03;;
84796;SDS011;75028;51.374;21.078;2024-01-27T06:15:29;8.65;;;2.85;;
84796;SDS011;75028;51.374;21.078;2024-01-27T06:17:55;5.82;;;1.85;;
84796;SDS011;75028;51.374;21.078;2024-01-27T06:20:23;10.25;;;2.83;;
84796;SDS011;75028;51.374;21.078;2024-01-27T06:22:49;11.75;;;2.58;;
84796;SDS011;75028;51.374;21.078;2024-01-27T06:25:16;11.10;;;2.97;;
84796;SDS011;75028;51.374;21.078;2024-01-27T06:27:43;18.58;;;2.90;;
84796;SDS011;75028;51.374;21.078;2024-01-27T06:32:36;9.38;;;3.33;;
84796;SDS011;75028;51.374;21.078;2024-01-27T06:37:29;9.48;;;2.90;;
84796;SDS011;75028;51.374;21.078;2024-01-27T06:42:21;19.63;;;3.05;;
84796;SDS011;75028;51.374;21.078;2024-01-27T06:44:47;6.82;;;2.67;;
84796;SDS011;75028;51.374;21.078;2024-01-27T06:47:13;10.18;;;2.55;;
84796;SDS011;75028;51.374;21.078;2024-01-27T06:49:40;14.45;;;2.92;;
84796;SDS011;75028;51.374;21.078;2024-01-27T06:52:06;10.80;;;3.13;;
84796;SDS011;75028;51.374;21.078;2024-01-27T06:54:32;10.05;;;3.65;;
84796;SDS011;75028;51.374;21.078;2024-01-27T06:56:59;12.65;;;3.25;;
84796;SDS011;75028;51.374;21.078;2024-01-27T06:59:26;12.02;;;3.67;;
84796;SDS011;75028;51.374;21.078;2024-01-27T07:01:52;5.82;;;3.08;;
84796;SDS011;75028;51.374;21.078;2024-01-27T07:04:19;8.98;;;3.33;;
84796;SDS011;75028;51.374;21.078;2024-01-27T07:06:45;8.25;;;3.67;;
84796;SDS011;75028;51.374;21.078;2024-01-27T07:09:11;12.07;;;3.65;;
84796;SDS011;75028;51.374;21.078;2024-01-27T07:11:37;18.50;;;4.65;;
84796;SDS011;75028;51.374;21.078;2024-01-27T07:14:04;14.73;;;3.40;;
84796;SDS011;75028;51.374;21.078;2024-01-27T07:18:58;14.32;;;3.83;;
84796;SDS011;75028;51.374;21.078;2024-01-27T07:21:24;8.38;;;3.60;;
84796;SDS011;75028;51.374;21.078;2024-01-27T07:23:51;10.60;;;3.53;;
84796;SDS011;75028;51.374;21.078;2024-01-27T07:28:44;13.02;;;4.18;;
84796;SDS011;75028;51.374;21.078;2024-01-27T07:31:10;15.32;;;4.13;;
84796;SDS011;75028;51.374;21.078;2024-01-27T07:33:37;15.65;;;4.85;;
84796;SDS011;75028;51.374;21.078;2024-01-27T07:36:04;15.75;;;4.07;;
84796;SDS011;75028;51.374;21.078;2024-01-27T07:38:30;13.18;;;3.70;;
84796;SDS011;75028;51.374;21.078;2024-01-27T07:40:56;14.23;;;4.13;;
84796;SDS011;75028;51.374;21.078;2024-01-27T07:43:23;15.00;;;4.78;;
84796;SDS011;75028;51.374;21.078;2024-01-27T07:45:51;12.40;;;4.25;;
84796;SDS011;75028;51.374;21.078;2024-01-27T07:48:18;15.30;;;4.50;;
84796;SDS011;75028;51.374;21.078;2024-01-27T07:50:44;14.25;;;4.50;;
84796;SDS011;75028;51.374;21.078;2024-01-27T07:53:14;10.20;;;4.65;;
84796;SDS011;75028;51.374;21.078;2024-01-27T07:55:41;10.90;;;4.20;;
84796;SDS011;75028;51.374;21.078;2024-01-27T07:58:07;10.75;;;4.55;;
84796;SDS011;75028;51.374;21.078;2024-01-27T08:00:33;14.95;;;4.70;;
84796;SDS011;75028;51.374;21.078;2024-01-27T08:02:59;13.30;;;5.68;;
84796;SDS011;75028;51.374;21.078;2024-01-27T08:05:25;14.10;;;5.13;;
84796;SDS011;75028;51.374;21.078;2024-01-27T08:07:51;15.55;;;4.30;;
84796;SDS011;75028;51.374;21.078;2024-01-27T08:12:44;10.05;;;4.43;;
84796;SDS011;75028;51.374;21.078;2024-01-27T08:15:10;9.82;;;4.15;;
84796;SDS011;75028;51.374;21.078;2024-01-27T08:17:37;13.55;;;5.22;;
84796;SDS011;75028;51.374;21.078;2024-01-27T08:20:03;7.30;;;3.80;;
84796;SDS011;75028;51.374;21.078;2024-01-27T08:22:30;9.80;;;4.30;;
84796;SDS011;75028;51.374;21.078;2024-01-27T08:24:56;25.77;;;5.40;;
84796;SDS011;75028;51.374;21.078;2024-01-27T08:27:22;15.07;;;5.32;;
84796;SDS011;75028;51.374;21.078;2024-01-27T08:29:48;17.48;;;5.07;;
84796;SDS011;75028;51.374;21.078;2024-01-27T08:32:14;12.73;;;4.53;;
84796;SDS011;75028;51.374;21.078;2024-01-27T08:34:41;11.77;;;4.57;;
84796;SDS011;75028;51.374;21.078;2024-01-27T08:37:14;13.65;;;4.40;;
84796;SDS011;75028;51.374;21.078;2024-01-27T08:39:43;18.05;;;4.80;;
84796;SDS011;75028;51.374;21.078;2024-01-27T08:42:09;12.27;;;4.78;;
84796;SDS011;75028;51.374;21.078;2024-01-27T08:44:36;12.55;;;4.03;;
84796;SDS011;75028;51.374;21.078;2024-01-27T08:47:02;12.30;;;4.80;;
84796;SDS011;75028;51.374;21.078;2024-01-27T08:49:28;16.60;;;4.53;;
84796;SDS011;75028;51.374;21.078;2024-01-27T08:51:54;10.50;;;4.72;;
84796;SDS011;75028;51.374;21.078;2024-01-27T08:54:21;11.35;;;4.78;;
84796;SDS011;75028;51.374;21.078;2024-01-27T08:56:47;8.68;;;4.18;;
84796;SDS011;75028;51.374;21.078;2024-01-27T08:59:13;12.88;;;4.45;;
84796;SDS011;75028;51.374;21.078;2024-01-27T09:01:39;16.35;;;4.88;;
84796;SDS011;75028;51.374;21.078;2024-01-27T09:04:05;9.85;;;4.50;;
84796;SDS011;75028;51.374;21.078;2024-01-27T09:06:32;10.77;;;4.43;;
84796;SDS011;75028;51.374;21.078;2024-01-27T09:08:58;12.00;;;5.40;;
84796;SDS011;75028;51.374;21.078;2024-01-27T09:11:24;14.32;;;4.97;;
84796;SDS011;75028;51.374;21.078;2024-01-27T09:13:53;15.10;;;5.20;;
84796;SDS011;75028;51.374;21.078;2024-01-27T09:16:19;11.48;;;5.43;;
84796;SDS011;75028;51.374;21.078;2024-01-27T09:18:45;12.77;;;5.20;;
84796;SDS011;75028;51.374;21.078;2024-01-27T09:21:11;13.35;;;4.80;;
84796;SDS011;75028;51.374;21.078;2024-01-27T09:23:37;7.35;;;4.25;;
84796;SDS011;75028;51.374;21.078;2024-01-27T09:26:04;13.68;;;5.07;;
84796;SDS011;75028;51.374;21.078;2024-01-27T09:28:30;12.77;;;4.70;;
84796;SDS011;75028;51.374;21.078;2024-01-27T09:30:56;8.65;;;4.32;;
84796;SDS011;75028;51.374;21.078;2024-01-27T09:33:23;14.27;;;4.68;;
84796;SDS011;75028;51.374;21.078;2024-01-27T09:35:49;10.82;;;4.38;;
84796;SDS011;75028;51.374;21.078;2024-01-27T09:38:15;10.95;;;5.25;;
84796;SDS011;75028;51.374;21.078;2024-01-27T09:40:41;14.43;;;5.05;;
84796;SDS011;75028;51.374;21.078;2024-01-27T09:43:07;21.13;;;4.88;;
84796;SDS011;75028;51.374;21.078;2024-01-27T09:45:38;14.65;;;4.85;;
84796;SDS011;75028;51.374;21.078;2024-01-27T09:48:05;15.27;;;4.65;;
84796;SDS011;75028;51.374;21.078;2024-01-27T09:50:34;15.48;;;5.32;;
84796;SDS011;75028;51.374;21.078;2024-01-27T09:53:01;12.70;;;5.35;;
84796;SDS011;75028;51.374;21.078;2024-01-27T09:55:27;15.52;;;4.32;;
84796;SDS011;75028;51.374;21.078;2024-01-27T09:57:53;10.60;;;4.05;;
84796;SDS011;75028;51.374;21.078;2024-01-27T10:00:20;13.57;;;4.97;;
84796;SDS011;75028;51.374;21.078;2024-01-27T10:02:48;14.93;;;4.13;;
84796;SDS011;75028;51.374;21.078;2024-01-27T10:07:41;8.75;;;3.95;;
84796;SDS011;75028;51.374;21.078;2024-01-27T10:10:08;8.02;;;3.95;;
84796;SDS011;75028;51.374;21.078;2024-01-27T10:12:35;13.52;;;4.00;;
84796;SDS011;75028;51.374;21.078;2024-01-27T10:15:06;7.53;;;3.42;;
84796;SDS011;75028;51.374;21.078;2024-01-27T10:17:33;8.25;;;3.15;;
84796;SDS011;75028;51.374;21.078;2024-01-27T10:20:02;8.10;;;3.90;;
84796;SDS011;75028;51.374;21.078;2024-01-27T10:22:50;9.07;;;4.05;;
84796;SDS011;75028;51.374;21.078;2024-01-27T10:25:17;12.30;;;3.65;;
84796;SDS011;75028;51.374;21.078;2024-01-27T10:27:43;13.80;;;5.10;;
84796;SDS011;75028;51.374;21.078;2024-01-27T10:30:15;10.70;;;4.72;;
84796;SDS011;75028;51.374;21.078;2024-01-27T10:32:42;9.88;;;4.82;;
84796;SDS011;75028;51.374;21.078;2024-01-27T10:37:35;8.50;;;3.90;;
84796;SDS011;75028;51.374;21.078;2024-01-27T10:44:59;13.52;;;4.43;;
84796;SDS011;75028;51.374;21.078;2024-01-27T10:47:28;10.40;;;4.25;;
84796;SDS011;75028;51.374;21.078;2024-01-27T10:49:57;9.30;;;4.03;;
84796;SDS011;75028;51.374;21.078;2024-01-27T10:52:31;9.05;;;4.38;;
84796;SDS011;75028;51.374;21.078;2024-01-27T10:54:58;8.82;;;3.90;;
84796;SDS011;75028;51.374;21.078;2024-01-27T10:57:26;7.80;;;3.80;;
84796;SDS011;75028;51.374;21.078;2024-01-27T10:59:53;8.45;;;4.75;;
84796;SDS011;75028;51.374;21.078;2024-01-27T11:02:20;9.65;;;4.07;;
84796;SDS011;75028;51.374;21.078;2024-01-27T11:04:48;8.27;;;3.72;;
84796;SDS011;75028;51.374;21.078;2024-01-27T11:07:17;8.48;;;4.22;;
84796;SDS011;75028;51.374;21.078;2024-01-27T11:09:47;7.18;;;4.00;;
84796;SDS011;75028;51.374;21.078;2024-01-27T11:12:15;10.10;;;4.75;;
84796;SDS011;75028;51.374;21.078;2024-01-27T11:14:42;7.05;;;4.00;;
84796;SDS011;75028;51.374;21.078;2024-01-27T11:17:10;8.20;;;4.13;;
84796;SDS011;75028;51.374;21.078;2024-01-27T11:19:39;8.60;;;4.25;;
84796;SDS011;75028;51.374;21.078;2024-01-27T11:22:05;8.25;;;4.18;;
84796;SDS011;75028;51.374;21.078;2024-01-27T11:24:32;6.30;;;3.83;;
84796;SDS011;75028;51.374;21.078;2024-01-27T11:27:01;13.57;;;4.32;;
84796;SDS011;75028;51.374;21.078;2024-01-27T11:29:28;6.57;;;3.83;;
84796;SDS011;75028;51.374;21.078;2024-01-27T11:31:55;7.82;;;3.95;;
84796;SDS011;75028;51.374;21.078;2024-01-27T11:34:24;8.13;;;4.25;;
84796;SDS011;75028;51.374;21.078;2024-01-27T11:36:50;9.60;;;4.15;;
84796;SDS011;75028;51.374;21.078;2024-01-27T11:39:34;7.22;;;4.72;;
84796;SDS011;75028;51.374;21.078;2024-01-27T11:42:06;6.43;;;4.13;;
84796;SDS011;75028;51.374;21.078;2024-01-27T11:44:35;8.52;;;3.67;;
84796;SDS011;75028;51.374;21.078;2024-01-27T11:47:01;7.35;;;4.45;;
84796;SDS011;75028;51.374;21.078;2024-01-27T11:49:28;10.55;;;4.43;;
84796;SDS011;75028;51.374;21.078;2024-01-27T11:51:54;8.65;;;4.28;;
84796;SDS011;75028;51.374;21.078;2024-01-27T11:54:20;9.20;;;4.80;;
84796;SDS011;75028;51.374;21.078;2024-01-27T11:56:46;11.25;;;4.65;;
84796;SDS011;75028;51.374;21.078;2024-01-27T11:59:14;9.00;;;5.22;;
84796;SDS011;75028;51.374;21.078;2024-01-27T12:01:40;8.90;;;5.13;;
84796;SDS011;75028;51.374;21.078;2024-01-27T12:04:07;9.45;;;4.93;;
84796;SDS011;75028;51.374;21.078;2024-01-27T12:06:34;8.65;;;4.75;;
84796;SDS011;75028;51.374;21.078;2024-01-27T12:09:01;9.20;;;4.60;;
84796;SDS011;75028;51.374;21.078;2024-01-27T12:11:27;9.70;;;4.82;;
84796;SDS011;75028;51.374;21.078;2024-01-27T12:13:56;11.15;;;5.50;;
84796;SDS011;75028;51.374;21.078;2024-01-27T12:16:22;5.22;;;3.70;;
84796;SDS011;75028;51.374;21.078;2024-01-27T12:18:53;8.20;;;4.70;;
84796;SDS011;75028;51.374;21.078;2024-01-27T12:21:21;10.02;;;5.25;;
84796;SDS011;75028;51.374;21.078;2024-01-27T12:26:20;9.60;;;5.00;;
84796;SDS011;75028;51.374;21.078;2024-01-27T12:28:49;7.95;;;4.70;;
84796;SDS011;75028;51.374;21.078;2024-01-27T12:31:18;7.70;;;4.00;;
84796;SDS011;75028;51.374;21.078;2024-01-27T12:33:54;7.68;;;3.83;;
84796;SDS011;75028;51.374;21.078;2024-01-27T12:36:21;8.85;;;3.15;;
84796;SDS011;75028;51.374;21.078;2024-01-27T12:41:23;6.53;;;4.20;;
84796;SDS011;75028;51.374;21.078;2024-01-27T12:43:54;7.68;;;3.70;;
84796;SDS011;75028;51.374;21.078;2024-01-27T12:46:21;9.15;;;4.47;;
84796;SDS011;75028;51.374;21.078;2024-01-27T12:48:47;7.05;;;3.90;;
84796;SDS011;75028;51.374;21.078;2024-01-27T12:51:13;11.30;;;4.72;;
84796;SDS011;75028;51.374;21.078;2024-01-27T12:53:40;9.43;;;4.55;;
84796;SDS011;75028;51.374;21.078;2024-01-27T12:56:10;15.63;;;6.50;;
84796;SDS011;75028;51.374;21.078;2024-01-27T12:58:37;13.85;;;6.28;;
84796;SDS011;75028;51.374;21.078;2024-01-27T13:01:04;14.15;;;6.85;;
84796;SDS011;75028;51.374;21.078;2024-01-27T13:03:31;13.50;;;6.03;;
84796;SDS011;75028;51.374;21.078;2024-01-27T13:05:57;12.10;;;6.60;;
84796;SDS011;75028;51.374;21.078;2024-01-27T13:10:50;8.23;;;4.38;;
84796;SDS011;75028;51.374;21.078;2024-01-27T13:13:16;10.82;;;4.55;;
84796;SDS011;75028;51.374;21.078;2024-01-27T13:15:42;13.05;;;5.57;;
84796;SDS011;75028;51.374;21.078;2024-01-27T13:18:09;21.63;;;7.47;;
84796;SDS011;75028;51.374;21.078;2024-01-27T13:20:38;19.60;;;7.10;;
84796;SDS011;75028;51.374;21.078;2024-01-27T13:23:06;36.83;;;9.48;;
84796;SDS011;75028;51.374;21.078;2024-01-27T13:25:32;26.63;;;7.88;;
84796;SDS011;75028;51.374;21.078;2024-01-27T13:30:26;11.90;;;4.75;;
84796;SDS011;75028;51.374;21.078;2024-01-27T13:32:55;9.38;;;4.55;;
84796;SDS011;75028;51.374;21.078;2024-01-27T13:35:21;10.32;;;4.97;;
84796;SDS011;75028;51.374;21.078;2024-01-27T13:37:47;10.38;;;4.35;;
84796;SDS011;75028;51.374;21.078;2024-01-27T13:40:13;7.93;;;4.57;;
84796;SDS011;75028;51.374;21.078;2024-01-27T13:42:40;8.13;;;4.40;;
84796;SDS011;75028;51.374;21.078;2024-01-27T13:45:06;6.97;;;4.22;;
84796;SDS011;75028;51.374;21.078;2024-01-27T13:47:34;9.45;;;4.90;;
84796;SDS011;75028;51.374;21.078;2024-01-27T13:50:00;13.30;;;5.65;;
84796;SDS011;75028;51.374;21.078;2024-01-27T13:52:27;10.32;;;5.95;;
84796;SDS011;75028;51.374;21.078;2024-01-27T13:54:54;11.90;;;5.05;;
84796;SDS011;75028;51.374;21.078;2024-01-27T13:57:20;9.57;;;5.50;;
84796;SDS011;75028;51.374;21.078;2024-01-27T13:59:47;9.73;;;4.97;;
84796;SDS011;75028;51.374;21.078;2024-01-27T14:02:13;15.65;;;6.50;;
84796;SDS011;75028;51.374;21.078;2024-01-27T14:04:39;14.00;;;7.22;;
84796;SDS011;75028;51.374;21.078;2024-01-27T14:07:05;12.30;;;6.18;;
84796;SDS011;75028;51.374;21.078;2024-01-27T14:09:35;16.95;;;7.82;;
84796;SDS011;75028;51.374;21.078;2024-01-27T14:12:02;17.90;;;8.52;;
84796;SDS011;75028;51.374;21.078;2024-01-27T14:14:28;19.52;;;8.20;;
84796;SDS011;75028;51.374;21.078;2024-01-27T14:16:54;21.33;;;10.15;;
84796;SDS011;75028;51.374;21.078;2024-01-27T14:19:20;20.27;;;8.35;;
84796;SDS011;75028;51.374;21.078;2024-01-27T14:21:46;21.25;;;8.60;;
84796;SDS011;75028;51.374;21.078;2024-01-27T14:24:12;28.50;;;10.00;;
84796;SDS011;75028;51.374;21.078;2024-01-27T14:26:38;17.70;;;8.98;;
84796;SDS011;75028;51.374;21.078;2024-01-27T14:29:04;18.40;;;9.55;;
84796;SDS011;75028;51.374;21.078;2024-01-27T14:31:31;23.27;;;11.45;;
84796;SDS011;75028;51.374;21.078;2024-01-27T14:33:57;13.02;;;6.53;;
84796;SDS011;75028;51.374;21.078;2024-01-27T14:36:24;16.77;;;7.72;;
84796;SDS011;75028;51.374;21.078;2024-01-27T14:38:51;15.73;;;8.30;;
84796;SDS011;75028;51.374;21.078;2024-01-27T14:41:17;13.55;;;7.10;;
84796;SDS011;75028;51.374;21.078;2024-01-27T14:43:43;15.43;;;8.93;;
84796;SDS011;75028;51.374;21.078;2024-01-27T14:46:09;15.00;;;7.85;;
84796;SDS011;75028;51.374;21.078;2024-01-27T14:48:35;14.20;;;8.07;;
84796;SDS011;75028;51.374;21.078;2024-01-27T14:51:02;20.20;;;8.52;;
84796;SDS011;75028;51.374;21.078;2024-01-27T14:53:29;21.73;;;9.73;;
84796;SDS011;75028;51.374;21.078;2024-01-27T14:55:55;58.55;;;20.27;;
84796;SDS011;75028;51.374;21.078;2024-01-27T15:00:48;24.58;;;12.27;;
84796;SDS011;75028;51.374;21.078;2024-01-27T15:03:18;15.25;;;8.30;;
84796;SDS011;75028;51.374;21.078;2024-01-27T15:05:50;17.05;;;9.40;;
84796;SDS011;75028;51.374;21.078;2024-01-27T15:08:16;15.00;;;8.68;;
84796;SDS011;75028;51.374;21.078;2024-01-27T15:10:43;14.25;;;9.25;;
84796;SDS011;75028;51.374;21.078;2024-01-27T15:13:11;16.60;;;9.05;;
84796;SDS011;75028;51.374;21.078;2024-01-27T15:15:38;13.43;;;7.70;;